Time;durP1;ratioP1;P1;durP2;ratioP2;P2;SDS_P1;SDS_P2;PMS_P1;PMS_P2;Temp;Humidity;BMP_temperature;BMP_pressure;BME280_temperature;BME280_humidity;BME280_pressure;Samples;Min_cycle;Max_cycle;Signal;HPM_P1;HPM_P2
2022/01/02 00:02:18;;;;;;;9.02;5.45;;;11.20;99.90;;;;;;5106053;28;20049;-71
2022/01/02 00:04:49;;;;;;;9.57;5.75;;;11.20;99.90;;;;;;5089002;28;20097;-71
2022/01/02 00:07:17;;;;;;;11.40;5.50;;;11.20;99.90;;;;;;5089346;28;20054;-71
2022/01/02 00:09:46;;;;;;;8.55;5.88;;;11.20;99.90;;;;;;5088716;28;20403;-70
2022/01/02 00:12:21;;;;;;;8.38;5.00;;;11.20;99.90;;;;;;5089070;28;20048;-71
2022/01/02 00:14:49;;;;;;;10.00;5.07;;;11.20;99.90;;;;;;5088990;28;20059;-71
2022/01/02 00:17:22;;;;;;;8.23;5.10;;;11.20;99.90;;;;;;5088253;28;20113;-71
2022/01/02 00:19:53;;;;;;;12.43;5.70;;;11.20;99.90;;;;;;5089238;28;20052;-72
2022/01/02 00:22:25;;;;;;;7.80;5.10;;;11.20;99.90;;;;;;5089081;28;20055;-72
2022/01/02 00:24:52;;;;;;;10.05;5.63;;;11.20;99.90;;;;;;5087978;28;20095;-71
2022/01/02 00:27:21;;;;;;;10.77;5.15;;;11.30;99.90;;;;;;5088632;28;20049;-71
2022/01/02 00:29:50;;;;;;;11.57;5.43;;;11.20;99.90;;;;;;5088731;28;20539;-71
2022/01/02 00:32:19;;;;;;;10.90;5.70;;;11.30;99.90;;;;;;5087899;28;20094;-72
2022/01/02 00:34:50;;;;;;;8.68;5.32;;;11.20;99.90;;;;;;5088658;28;20458;-72
2022/01/02 00:37:17;;;;;;;11.68;5.88;;;11.30;99.90;;;;;;5088422;28;20080;-72
2022/01/02 00:39:44;;;;;;;13.18;6.07;;;11.20;99.90;;;;;;5088063;28;20098;-71
2022/01/02 00:42:15;;;;;;;10.02;5.47;;;11.30;99.90;;;;;;5088558;28;20048;-72
2022/01/02 00:44:57;;;;;;;10.55;6.03;;;11.30;99.90;;;;;;5087668;28;20098;-71
2022/01/02 00:47:30;;;;;;;9.85;5.22;;;11.30;99.90;;;;;;5088672;28;20056;-72
2022/01/02 00:50:04;;;;;;;10.73;5.13;;;11.30;99.90;;;;;;5088683;28;20479;-72
2022/01/02 00:52:34;;;;;;;12.15;5.82;;;11.30;99.90;;;;;;5087657;28;20080;-71
2022/01/02 00:55:03;;;;;;;11.77;6.25;;;11.30;99.90;;;;;;5087893;28;20084;-71
2022/01/02 00:57:34;;;;;;;10.45;6.25;;;11.30;99.90;;;;;;5088400;28;20467;-71
2022/01/02 01:00:10;;;;;;;11.70;6.03;;;11.30;99.90;;;;;;5104454;28;20495;-71
2022/01/02 01:02:44;;;;;;;10.70;6.20;;;11.30;99.90;;;;;;5088024;28;20526;-72
2022/01/02 01:05:11;;;;;;;11.10;5.90;;;11.30;99.90;;;;;;5088123;28;20109;-71
2022/01/02 01:07:39;;;;;;;11.80;5.95;;;11.30;99.90;;;;;;5078964;28;20084;-71
2022/01/02 01:10:11;;;;;;;14.90;6.53;;;11.30;99.90;;;;;;5074949;28;20413;-72
2022/01/02 01:12:38;;;;;;;12.25;6.00;;;11.30;99.90;;;;;;5073991;28;20059;-71
2022/01/02 01:15:08;;;;;;;11.38;6.22;;;11.30;99.90;;;;;;5090989;28;20080;-73
2022/01/02 01:17:37;;;;;;;13.55;6.25;;;11.30;99.90;;;;;;5074687;28;20052;-72
2022/01/02 01:20:05;;;;;;;9.77;6.13;;;11.20;99.90;;;;;;5090668;28;20102;-72
2022/01/02 01:22:32;;;;;;;11.57;6.65;;;11.20;99.90;;;;;;5074429;28;20092;-71
2022/01/02 01:24:59;;;;;;;13.35;6.07;;;11.20;99.90;;;;;;5073625;28;20098;-71
2022/01/02 01:27:27;;;;;;;12.85;5.90;;;11.20;99.90;;;;;;5073816;28;20106;-70
2022/01/02 01:29:54;;;;;;;11.88;6.95;;;11.20;99.90;;;;;;5090980;28;20135;-71
2022/01/02 01:32:22;;;;;;;12.52;6.25;;;11.30;99.90;;;;;;5074201;28;20112;-71
2022/01/02 01:34:49;;;;;;;13.23;6.28;;;11.30;99.90;;;;;;5073160;28;20094;-72
2022/01/02 01:37:16;;;;;;;11.48;6.25;;;11.30;99.90;;;;;;5075334;28;20087;-71
2022/01/02 01:39:42;;;;;;;13.00;5.97;;;11.30;99.90;;;;;;5091234;28;20479;-72
2022/01/02 01:42:11;;;;;;;17.73;6.55;;;11.30;99.90;;;;;;5073532;28;20102;-71
2022/01/02 01:45:03;;;;;;;16.15;8.02;;;11.30;99.90;;;;;;5073819;28;20052;-71
2022/01/02 01:47:30;;;;;;;16.02;6.80;;;11.30;99.90;;;;;;5073914;28;20432;-71
2022/01/02 01:49:57;;;;;;;13.07;7.22;;;11.20;99.90;;;;;;5073357;28;20488;-71
2022/01/02 01:52:24;;;;;;;14.10;7.15;;;11.20;99.90;;;;;;5090517;28;20139;-70
2022/01/02 01:54:51;;;;;;;13.00;6.40;;;11.20;99.90;;;;;;5075157;28;20080;-71
2022/01/02 01:57:18;;;;;;;11.43;6.40;;;11.20;99.90;;;;;;5053555;28;20578;-71
2022/01/02 01:59:47;;;;;;;14.93;7.22;;;11.20;99.90;;;;;;5053634;28;20057;-71
2022/01/02 02:02:15;;;;;;;18.02;8.20;;;11.10;99.90;;;;;;5053113;28;20067;-71
2022/01/02 02:04:43;;;;;;;15.82;7.40;;;11.20;99.90;;;;;;5053361;28;20053;-71
2022/01/02 02:07:11;;;;;;;14.35;8.32;;;11.20;99.90;;;;;;5061072;28;20157;-71
2022/01/02 02:09:52;;;;;;;15.30;7.05;;;11.10;99.90;;;;;;5072942;28;20052;-71
2022/01/02 02:12:18;;;;;;;14.00;7.18;;;11.10;99.90;;;;;;5073539;28;20053;-71
2022/01/02 02:14:46;;;;;;;14.65;7.60;;;11.20;99.90;;;;;;5072917;28;20052;-71
2022/01/02 02:17:13;;;;;;;17.40;8.60;;;11.10;99.90;;;;;;5072791;28;20396;-71
2022/01/02 02:19:40;;;;;;;15.75;7.85;;;11.10;99.90;;;;;;5072481;28;20048;-71
2022/01/02 02:22:09;;;;;;;17.88;8.63;;;11.10;99.90;;;;;;5073301;28;20209;-71
2022/01/02 02:24:35;;;;;;;12.82;8.38;;;11.10;99.90;;;;;;5071952;28;20130;-71
2022/01/02 02:27:02;;;;;;;16.45;8.23;;;11.10;99.90;;;;;;5073343;28;20415;-71
2022/01/02 02:29:29;;;;;;;18.27;10.07;;;11.10;99.90;;;;;;5073235;28;20096;-71
2022/01/02 02:31:56;;;;;;;18.85;10.27;;;11.10;99.90;;;;;;5072384;28;20484;-72
2022/01/02 02:34:23;;;;;;;16.25;9.35;;;11.00;99.90;;;;;;5072945;28;20058;-71
2022/01/02 02:36:50;;;;;;;19.55;10.35;;;11.00;99.90;;;;;;5073867;28;20076;-71
2022/01/02 02:39:18;;;;;;;17.85;9.25;;;11.00;99.90;;;;;;5072164;28;20157;-71
2022/01/02 02:41:45;;;;;;;17.10;9.40;;;11.00;99.90;;;;;;5089688;28;20056;-71
2022/01/02 02:44:21;;;;;;;22.20;9.93;;;10.90;99.90;;;;;;5077360;28;20126;-72
2022/01/02 02:49:32;;;;;;;17.17;8.88;;;10.90;99.90;;;;;;5069256;28;20055;-72
2022/01/02 02:52:04;;;;;;;19.52;9.32;;;10.90;99.90;;;;;;5052141;28;20195;-71
2022/01/02 02:54:33;;;;;;;15.60;9.45;;;10.90;99.90;;;;;;5063398;28;20131;-71
2022/01/02 02:57:01;;;;;;;25.17;10.93;;;11.00;99.90;;;;;;5089190;28;20084;-72
2022/01/02 02:59:30;;;;;;;23.45;10.20;;;10.90;99.90;;;;;;5071771;28;20060;-72
2022/01/02 03:01:57;;;;;;;18.50;10.55;;;10.80;99.90;;;;;;5071996;28;20131;-73
2022/01/02 03:04:25;;;;;;;18.63;10.05;;;10.80;99.90;;;;;;5072295;28;20091;-72
2022/01/02 03:06:52;;;;;;;21.10;10.88;;;10.80;99.90;;;;;;5072086;28;20478;-73
2022/01/02 03:09:36;;;;;;;20.92;11.27;;;10.80;99.90;;;;;;5072062;28;20504;-73
2022/01/02 03:12:05;;;;;;;20.70;11.05;;;10.80;99.90;;;;;;5072506;28;20053;-72
2022/01/02 03:14:32;;;;;;;19.15;10.55;;;10.80;99.90;;;;;;5071230;28;20084;-73
2022/01/02 03:16:59;;;;;;;17.60;11.25;;;10.70;99.90;;;;;;5072166;28;20052;-73
2022/01/02 03:19:26;;;;;;;21.42;11.30;;;10.70;99.90;;;;;;5071779;28;20496;-73
2022/01/02 03:21:53;;;;;;;20.27;11.93;;;10.70;99.90;;;;;;5071739;28;20060;-73
2022/01/02 03:24:20;;;;;;;25.58;12.02;;;10.70;99.90;;;;;;5071749;28;20087;-72
2022/01/02 03:26:46;;;;;;;19.45;11.10;;;10.70;99.90;;;;;;5071532;28;20076;-73
2022/01/02 03:29:15;;;;;;;19.27;10.45;;;10.70;99.90;;;;;;5072157;28;20109;-73
2022/01/02 03:31:41;;;;;;;18.88;11.45;;;10.80;99.90;;;;;;5072155;28;20407;-73
2022/01/02 03:34:08;;;;;;;18.27;11.02;;;10.70;99.90;;;;;;5070939;28;20472;-72
2022/01/02 03:36:35;;;;;;;20.88;11.23;;;10.70;99.90;;;;;;5071985;28;20076;-72
2022/01/02 03:39:03;;;;;;;19.52;10.30;;;10.70;99.90;;;;;;5071994;28;20053;-72
2022/01/02 03:41:30;;;;;;;17.35;10.48;;;10.70;99.90;;;;;;5071310;28;20533;-73
2022/01/02 03:43:59;;;;;;;19.27;10.43;;;10.70;99.90;;;;;;5071868;28;20447;-72
2022/01/02 03:46:27;;;;;;;22.65;11.43;;;10.70;99.90;;;;;;5071640;28;20059;-72
2022/01/02 03:48:54;;;;;;;19.83;11.10;;;10.70;99.90;;;;;;5071389;28;20456;-72
2022/01/02 03:51:20;;;;;;;20.73;11.25;;;10.70;99.90;;;;;;5071585;28;20087;-71
2022/01/02 03:53:47;;;;;;;29.90;12.75;;;10.70;99.90;;;;;;5071994;28;20087;-71
2022/01/02 03:56:14;;;;;;;27.77;12.55;;;10.70;99.90;;;;;;5070645;28;20052;-73
2022/01/02 03:58:41;;;;;;;25.67;12.50;;;10.70;99.90;;;;;;5071696;28;20053;-73
2022/01/02 04:01:08;;;;;;;30.55;11.55;;;10.70;99.90;;;;;;5071946;28;20052;-73
2022/01/02 04:03:36;;;;;;;20.52;11.43;;;10.70;99.90;;;;;;5071191;28;20052;-72
2022/01/02 04:06:02;;;;;;;23.98;11.10;;;10.70;99.90;;;;;;5072705;28;20091;-72
2022/01/02 04:08:29;;;;;;;24.60;11.20;;;10.70;99.90;;;;;;5072231;28;20044;-72
2022/01/02 04:10:56;;;;;;;20.95;10.25;;;10.70;99.90;;;;;;5071717;28;20060;-72
2022/01/02 04:13:23;;;;;;;20.52;10.98;;;10.70;99.90;;;;;;5071327;28;20512;-72
2022/01/02 04:15:50;;;;;;;24.92;10.85;;;10.70;99.90;;;;;;5070835;28;20087;-72
2022/01/02 04:18:16;;;;;;;19.38;10.85;;;10.80;99.90;;;;;;5072699;28;20049;-71
2022/01/02 04:20:44;;;;;;;19.30;10.38;;;10.80;99.90;;;;;;5071336;28;20091;-72
2022/01/02 04:23:11;;;;;;;19.77;11.23;;;10.80;99.90;;;;;;5071052;28;20091;-72
2022/01/02 04:25:38;;;;;;;22.27;10.07;;;10.80;99.90;;;;;;5071085;28;20091;-72
2022/01/02 04:28:05;;;;;;;20.08;10.75;;;10.80;99.90;;;;;;5071633;28;20088;-72
2022/01/02 04:30:32;;;;;;;21.25;10.40;;;10.90;99.90;;;;;;5070934;28;20080;-72
2022/01/02 04:32:58;;;;;;;27.83;11.10;;;10.90;99.90;;;;;;5071637;28;20054;-71
2022/01/02 04:35:25;;;;;;;23.60;9.40;;;10.90;99.90;;;;;;5072967;28;20044;-71
2022/01/02 04:37:53;;;;;;;20.10;11.15;;;10.90;99.90;;;;;;5070737;28;20102;-72
2022/01/02 04:40:20;;;;;;;17.42;9.18;;;10.90;99.90;;;;;;5071134;28;20102;-71
2022/01/02 04:42:47;;;;;;;17.77;9.43;;;11.00;99.90;;;;;;5073355;28;20060;-71
2022/01/02 04:45:14;;;;;;;18.40;10.40;;;10.90;99.90;;;;;;5074426;28;20053;-71
2022/01/02 04:47:41;;;;;;;21.67;9.80;;;10.90;99.90;;;;;;5075409;28;20117;-72
2022/01/02 04:50:08;;;;;;;21.60;11.15;;;11.00;99.90;;;;;;5074553;28;20090;-72
2022/01/02 04:52:35;;;;;;;20.00;10.30;;;10.90;99.90;;;;;;5073986;28;20049;-72
2022/01/02 04:55:03;;;;;;;17.45;9.02;;;10.90;99.90;;;;;;5074691;28;20060;-72
2022/01/02 04:57:30;;;;;;;24.60;10.13;;;10.90;99.90;;;;;;5074902;28;20086;-71
2022/01/02 04:59:57;;;;;;;21.40;9.57;;;11.00;99.90;;;;;;5074045;28;20083;-70
2022/01/02 05:02:24;;;;;;;22.27;10.52;;;11.00;99.90;;;;;;5091625;28;20048;-71
2022/01/02 05:04:51;;;;;;;18.70;9.52;;;11.00;99.90;;;;;;5074086;28;20488;-71
2022/01/02 05:07:18;;;;;;;14.40;9.00;;;11.00;99.90;;;;;;5091715;28;20091;-71
2022/01/02 05:09:45;;;;;;;20.45;9.90;;;11.00;99.90;;;;;;5074788;28;20468;-72
2022/01/02 05:12:13;;;;;;;19.88;8.93;;;11.00;99.90;;;;;;5091001;28;20569;-72
2022/01/02 05:14:40;;;;;;;17.95;9.13;;;11.00;99.90;;;;;;5074428;28;20099;-72
2022/01/02 05:17:06;;;;;;;20.02;9.10;;;11.00;99.90;;;;;;5074439;28;20087;-71
2022/01/02 05:19:33;;;;;;;19.13;9.80;;;11.00;99.90;;;;;;5073471;28;20080;-71
2022/01/02 05:22:00;;;;;;;18.92;9.40;;;11.00;99.90;;;;;;5074522;28;20088;-71
2022/01/02 05:24:27;;;;;;;13.15;7.65;;;11.00;99.90;;;;;;5073885;28;20091;-71
2022/01/02 05:26:55;;;;;;;16.52;8.25;;;11.00;99.90;;;;;;5073477;28;20045;-71
2022/01/02 05:29:23;;;;;;;21.33;9.30;;;11.10;99.90;;;;;;5074199;28;20056;-71
2022/01/02 05:31:51;;;;;;;15.65;8.10;;;11.10;99.90;;;;;;5074145;28;20080;-71
2022/01/02 05:34:18;;;;;;;19.75;8.40;;;11.10;99.90;;;;;;5074627;28;20084;-71
2022/01/02 05:36:48;;;;;;;23.48;7.97;;;11.10;99.90;;;;;;5074031;28;20090;-70
2022/01/02 05:39:16;;;;;;;14.70;7.35;;;11.10;99.90;;;;;;5074358;28;20048;-71
2022/01/02 05:41:43;;;;;;;17.02;7.82;;;11.10;99.90;;;;;;5073458;28;20052;-71
2022/01/02 05:44:10;;;;;;;17.02;7.25;;;11.10;99.90;;;;;;5073939;28;20080;-71
2022/01/02 05:46:38;;;;;;;14.07;6.90;;;11.10;99.90;;;;;;5073974;28;20060;-71
2022/01/02 05:49:05;;;;;;;18.73;7.97;;;11.10;99.90;;;;;;5073489;28;20060;-71
2022/01/02 05:51:32;;;;;;;19.15;7.32;;;11.10;99.90;;;;;;5073811;28;20056;-72
2022/01/02 05:53:59;;;;;;;20.73;8.00;;;11.10;99.90;;;;;;5072994;28;20480;-71
2022/01/02 05:56:26;;;;;;;14.20;6.53;;;11.20;99.90;;;;;;5073363;28;20095;-71
2022/01/02 05:58:53;;;;;;;17.33;6.75;;;11.20;99.90;;;;;;5090445;28;20088;-72
2022/01/02 06:01:20;;;;;;;17.33;7.30;;;11.20;99.90;;;;;;5072891;28;20091;-72
2022/01/02 06:03:48;;;;;;;16.73;7.88;;;11.30;99.90;;;;;;5073863;28;20109;-72
2022/01/02 06:06:15;;;;;;;12.30;6.43;;;11.30;99.90;;;;;;5073202;28;20114;-73
2022/01/02 06:08:41;;;;;;;15.48;6.45;;;11.30;99.90;;;;;;5074185;28;20169;-72
2022/01/02 06:11:08;;;;;;;18.83;6.50;;;11.30;99.90;;;;;;5073472;28;20092;-73
2022/01/02 06:13:35;;;;;;;14.48;6.25;;;11.30;99.90;;;;;;5073234;28;20109;-72
2022/01/02 06:16:02;;;;;;;16.42;6.82;;;11.30;99.90;;;;;;5072657;28;20496;-72
2022/01/02 06:18:29;;;;;;;13.93;5.90;;;11.30;99.90;;;;;;5073271;28;20040;-72
2022/01/02 06:20:57;;;;;;;16.17;7.10;;;11.30;99.90;;;;;;5073155;28;20097;-72
2022/01/02 06:23:24;;;;;;;19.48;6.45;;;11.40;99.90;;;;;;5072764;28;20091;-72
2022/01/02 06:25:51;;;;;;;16.08;6.35;;;11.30;99.90;;;;;;5090045;28;20087;-72
2022/01/02 06:28:18;;;;;;;18.58;6.40;;;11.30;99.90;;;;;;5090203;28;20080;-72
2022/01/02 06:30:44;;;;;;;11.88;6.05;;;11.40;99.90;;;;;;5073738;28;20131;-72
2022/01/02 06:33:11;;;;;;;16.45;6.25;;;11.40;99.90;;;;;;5073171;28;20411;-72
2022/01/02 06:35:38;;;;;;;14.40;6.70;;;11.40;99.90;;;;;;5072360;28;20052;-72
2022/01/02 06:38:14;;;;;;;16.20;6.43;;;11.40;99.90;;;;;;5089044;28;20131;-72
2022/01/02 06:40:41;;;;;;;19.15;6.05;;;11.40;99.90;;;;;;5090133;28;20117;-73
2022/01/02 06:43:08;;;;;;;15.90;6.35;;;11.40;99.90;;;;;;5072559;28;20538;-73
2022/01/02 06:45:36;;;;;;;17.00;6.38;;;11.40;99.90;;;;;;5072527;28;20475;-72
2022/01/02 06:48:03;;;;;;;14.65;5.43;;;11.40;99.90;;;;;;5089516;28;20044;-72
2022/01/02 06:50:31;;;;;;;15.40;6.25;;;11.40;99.90;;;;;;5089122;28;20140;-73
2022/01/02 06:52:57;;;;;;;12.48;5.25;;;11.40;99.90;;;;;;5072555;28;20095;-72
2022/01/02 06:55:26;;;;;;;14.27;6.15;;;11.40;99.90;;;;;;5073477;28;20088;-73
2022/01/02 06:57:53;;;;;;;15.13;5.30;;;11.40;99.90;;;;;;5071725;28;20577;-72
2022/01/02 07:00:20;;;;;;;18.15;5.43;;;11.40;99.90;;;;;;5072804;28;20052;-72
2022/01/02 07:02:46;;;;;;;14.40;4.95;;;11.40;99.90;;;;;;5072105;28;20132;-72
2022/01/02 07:05:13;;;;;;;24.98;5.40;;;11.40;99.90;;;;;;5071338;28;20080;-71
2022/01/02 07:07:42;;;;;;;15.85;4.95;;;11.40;99.90;;;;;;5072398;28;20373;-71
2022/01/02 07:10:09;;;;;;;13.55;4.63;;;11.40;99.90;;;;;;5072609;28;20059;-71
2022/01/02 07:12:37;;;;;;;27.08;5.30;;;11.50;99.90;;;;;;5071867;28;20472;-71
2022/01/02 07:15:05;;;;;;;12.95;4.43;;;11.50;99.90;;;;;;5072130;28;20551;-71
2022/01/02 07:17:32;;;;;;;9.75;3.55;;;11.50;99.90;;;;;;5072107;28;20132;-71
2022/01/02 07:19:58;;;;;;;13.93;4.22;;;11.50;99.90;;;;;;5071470;28;20098;-72
2022/01/02 07:22:25;;;;;;;12.93;5.18;;;11.60;99.90;;;;;;5072356;28;20122;-72
2022/01/02 07:24:52;;;;;;;11.30;4.25;;;11.60;99.90;;;;;;5088934;28;20052;-72
2022/01/02 07:27:19;;;;;;;9.68;3.78;;;11.60;99.90;;;;;;5071581;28;20107;-72
2022/01/02 07:29:48;;;;;;;8.40;3.45;;;11.60;99.90;;;;;;5072004;28;20102;-72
2022/01/02 07:32:15;;;;;;;16.08;4.25;;;11.60;99.90;;;;;;5069265;28;20143;-70
2022/01/02 07:34:42;;;;;;;11.65;4.15;;;11.70;99.90;;;;;;5075295;28;20064;-71
2022/01/02 07:37:10;;;;;;;9.18;3.97;;;11.70;99.90;;;;;;5066903;28;20518;-71
2022/01/02 07:39:36;;;;;;;5.85;3.03;;;11.70;99.90;;;;;;5069049;28;20102;-71
2022/01/02 07:42:04;;;;;;;11.25;4.85;;;11.70;99.90;;;;;;5074880;28;20053;-72
2022/01/02 07:44:31;;;;;;;7.07;3.75;;;11.70;99.90;;;;;;5068258;28;20131;-71
2022/01/02 07:46:59;;;;;;;8.23;3.80;;;11.70;99.90;;;;;;5064756;28;20546;-71
2022/01/02 07:49:26;;;;;;;9.98;3.88;;;11.70;99.90;;;;;;5068112;28;20080;-72
2022/01/02 07:51:52;;;;;;;10.75;3.80;;;11.70;99.90;;;;;;5067848;28;20102;-71
2022/01/02 07:54:19;;;;;;;10.65;4.25;;;11.70;99.90;;;;;;5075212;28;20772;-72
2022/01/02 07:56:46;;;;;;;9.20;3.67;;;11.60;99.90;;;;;;5064475;28;20095;-71
2022/01/02 07:59:13;;;;;;;8.00;4.10;;;11.70;99.90;;;;;;5067417;28;20113;-70
2022/01/02 08:01:40;;;;;;;9.55;4.05;;;11.70;99.90;;;;;;5066736;28;20078;-70
2022/01/02 08:04:08;;;;;;;11.23;4.18;;;11.60;99.90;;;;;;5066284;28;20058;-71
2022/01/02 08:06:35;;;;;;;16.02;4.60;;;11.60;99.90;;;;;;5066818;28;20561;-71
2022/01/02 08:09:02;;;;;;;13.13;4.57;;;11.60;99.90;;;;;;5067376;28;20041;-70
2022/01/02 08:11:29;;;;;;;15.13;4.28;;;11.60;99.90;;;;;;5066306;28;20423;-71
2022/01/02 08:13:55;;;;;;;10.93;4.43;;;11.50;99.90;;;;;;5066760;28;20476;-71
2022/01/02 08:16:22;;;;;;;12.80;5.07;;;11.50;99.90;;;;;;5066927;28;20076;-72
2022/01/02 08:18:49;;;;;;;14.02;5.57;;;11.40;99.90;;;;;;5072805;28;20087;-71
2022/01/02 08:21:17;;;;;;;11.57;4.20;;;11.40;99.90;;;;;;5069812;28;20084;-71
2022/01/02 08:23:44;;;;;;;14.77;5.82;;;11.40;99.90;;;;;;5068883;28;20095;-71
2022/01/02 08:26:11;;;;;;;10.23;5.05;;;11.30;99.90;;;;;;5069507;28;20079;-71
2022/01/02 08:28:38;;;;;;;10.95;4.80;;;11.30;99.90;;;;;;5069880;28;20041;-71
2022/01/02 08:31:05;;;;;;;10.20;4.32;;;11.30;99.90;;;;;;5069603;28;20130;-71
2022/01/02 08:33:32;;;;;;;9.02;5.00;;;11.30;99.90;;;;;;5081194;28;20044;-71
2022/01/02 08:35:58;;;;;;;9.48;4.63;;;11.30;99.90;;;;;;5068052;28;20518;-71
2022/01/02 08:38:28;;;;;;;8.95;4.97;;;11.30;99.90;;;;;;5068055;28;20063;-71
2022/01/02 08:40:55;;;;;;;10.80;5.07;;;11.20;99.90;;;;;;5072475;28;20050;-72
2022/01/02 08:43:22;;;;;;;10.02;4.75;;;11.20;99.90;;;;;;5070663;28;20127;-72
2022/01/02 08:45:48;;;;;;;14.00;5.32;;;11.20;99.90;;;;;;5069907;28;20048;-71
2022/01/02 08:48:15;;;;;;;9.43;4.78;;;11.20;99.90;;;;;;5069009;28;20037;-71
2022/01/02 08:50:42;;;;;;;8.48;4.78;;;11.20;99.90;;;;;;5077208;28;20040;-71
2022/01/02 08:53:09;;;;;;;11.43;4.82;;;11.20;99.90;;;;;;5070591;28;20049;-71
2022/01/02 08:55:37;;;;;;;8.57;4.40;;;11.20;99.90;;;;;;5069458;28;20107;-71
2022/01/02 08:58:04;;;;;;;8.18;4.20;;;11.20;99.90;;;;;;5068598;28;20561;-71
2022/01/02 09:00:33;;;;;;;9.57;4.50;;;11.10;99.90;;;;;;5071815;28;20059;-72
2022/01/02 09:03:00;;;;;;;9.63;4.57;;;11.10;99.90;;;;;;5069101;28;20052;-71
2022/01/02 09:05:27;;;;;;;8.98;4.40;;;11.10;99.90;;;;;;5070378;28;20068;-71
2022/01/02 09:07:54;;;;;;;7.55;3.85;;;11.10;99.90;;;;;;5069731;28;20047;-71
2022/01/02 09:10:21;;;;;;;9.52;4.72;;;11.10;99.90;;;;;;5069211;28;20053;-71
2022/01/02 09:12:50;;;;;;;9.52;4.45;;;11.10;99.90;;;;;;5066705;28;20511;-71
2022/01/02 09:15:17;;;;;;;11.63;4.18;;;11.10;99.90;;;;;;5067380;28;20139;-71
2022/01/02 09:17:44;;;;;;;10.20;4.80;;;11.10;99.90;;;;;;5069385;28;20076;-72
2022/01/02 09:20:12;;;;;;;12.20;5.60;;;11.00;99.90;;;;;;5067201;28;20085;-72
2022/01/02 09:22:40;;;;;;;9.45;5.63;;;11.00;99.90;;;;;;5067002;28;20048;-71
2022/01/02 09:25:08;;;;;;;12.23;5.45;;;11.00;99.90;;;;;;5068698;28;20045;-72
2022/01/02 09:27:35;;;;;;;32.38;6.18;;;11.00;99.90;;;;;;5071295;28;20527;-71
2022/01/02 09:30:04;;;;;;;10.43;6.32;;;11.00;99.90;;;;;;5068364;28;20348;-71
2022/01/02 09:32:34;;;;;;;13.32;5.55;;;11.00;99.90;;;;;;5070412;28;20135;-71
2022/01/02 09:35:01;;;;;;;11.50;5.95;;;11.00;99.90;;;;;;5068590;28;20478;-71
2022/01/02 09:37:28;;;;;;;11.90;5.60;;;11.00;99.90;;;;;;5068584;28;20082;-71
2022/01/02 09:39:54;;;;;;;16.38;6.30;;;11.00;99.90;;;;;;5069732;28;20561;-71
2022/01/02 09:42:21;;;;;;;7.53;5.43;;;11.00;99.90;;;;;;5068740;28;20084;-71
2022/01/02 09:44:48;;;;;;;12.35;6.68;;;11.00;99.90;;;;;;5079236;28;20464;-71
2022/01/02 09:47:21;;;;;;;11.15;6.15;;;11.00;99.90;;;;;;5067978;28;20098;-71
2022/01/02 09:49:48;;;;;;;10.52;5.78;;;11.00;99.90;;;;;;5069075;28;20055;-71
2022/01/02 09:52:15;;;;;;;9.98;5.68;;;11.00;99.90;;;;;;5071704;28;20054;-71
2022/01/02 09:54:42;;;;;;;11.65;6.35;;;11.00;99.90;;;;;;5071908;28;20098;-71
2022/01/02 09:57:11;;;;;;;10.45;7.20;;;11.00;99.90;;;;;;5077588;28;20088;-72
2022/01/02 09:59:38;;;;;;;17.75;6.78;;;11.00;99.90;;;;;;5071402;28;20040;-71
2022/01/02 10:02:05;;;;;;;11.88;6.68;;;10.90;99.90;;;;;;5068233;28;20048;-71
2022/01/02 10:04:36;;;;;;;17.65;7.68;;;11.00;99.90;;;;;;5070122;28;20048;-71
2022/01/02 10:07:04;;;;;;;12.30;6.35;;;10.90;99.90;;;;;;5068933;28;20456;-71
2022/01/02 10:09:33;;;;;;;13.60;7.22;;;10.90;99.90;;;;;;5068719;28;20127;-71
2022/01/02 10:12:21;;;;;;;11.27;6.50;;;10.90;99.90;;;;;;5068217;28;20092;-71
2022/01/02 10:15:09;;;;;;;13.30;6.90;;;10.90;99.90;;;;;;5067798;28;20084;-71
2022/01/02 10:17:52;;;;;;;9.68;6.18;;;10.90;99.90;;;;;;5069872;28;20053;-71
2022/01/02 10:20:21;;;;;;;13.45;7.20;;;10.90;99.90;;;;;;5069876;28;20051;-71
2022/01/02 10:23:12;;;;;;;11.13;6.72;;;10.90;99.90;;;;;;5070379;28;20048;-71
2022/01/02 10:25:41;;;;;;;14.10;7.28;;;10.90;99.90;;;;;;5066436;28;20497;-72
2022/01/02 10:28:35;;;;;;;13.35;6.85;;;10.90;99.90;;;;;;5068470;28;20080;-72
2022/01/02 10:31:06;;;;;;;10.55;6.43;;;10.90;99.90;;;;;;5069222;28;20045;-71
2022/01/02 10:33:48;;;;;;;13.63;6.43;;;10.90;99.90;;;;;;5070192;28;20132;-72
2022/01/02 10:36:25;;;;;;;12.45;7.18;;;11.00;99.90;;;;;;5067752;28;20098;-72
2022/01/02 10:39:11;;;;;;;10.95;6.97;;;11.00;99.90;;;;;;5067918;28;20051;-72
2022/01/02 10:41:40;;;;;;;16.58;6.43;;;11.00;99.90;;;;;;5065441;28;20454;-72
2022/01/02 10:44:26;;;;;;;15.30;7.03;;;11.00;99.90;;;;;;5066600;28;20052;-72
2022/01/02 10:47:06;;;;;;;17.10;6.93;;;11.00;99.90;;;;;;5080092;28;20048;-71
2022/01/02 10:49:51;;;;;;;13.85;7.40;;;11.00;99.90;;;;;;5066527;28;20119;-72
2022/01/02 10:52:21;;;;;;;13.02;6.55;;;11.10;99.90;;;;;;5067049;28;20136;-72
2022/01/02 10:54:48;;;;;;;17.00;6.85;;;11.10;99.90;;;;;;5066385;28;20040;-73
2022/01/02 10:57:15;;;;;;;12.07;6.15;;;11.00;99.90;;;;;;5063592;28;20487;-72
2022/01/02 10:59:43;;;;;;;11.85;6.53;;;11.00;99.90;;;;;;5071316;28;20079;-72
2022/01/02 11:02:13;;;;;;;15.93;6.63;;;11.10;99.90;;;;;;5067424;28;20079;-72
2022/01/02 11:04:49;;;;;;;18.23;5.72;;;11.10;99.90;;;;;;5067969;28;20459;-72
2022/01/02 11:07:22;;;;;;;13.43;5.18;;;11.10;99.90;;;;;;5066156;28;20121;-72
2022/01/02 11:09:52;;;;;;;13.05;5.70;;;11.10;99.90;;;;;;5067411;28;20108;-72
2022/01/02 11:12:19;;;;;;;11.82;5.55;;;11.10;99.90;;;;;;5066603;28;20424;-72
2022/01/02 11:14:46;;;;;;;12.45;4.80;;;11.20;99.90;;;;;;5077662;28;20080;-72
2022/01/02 11:17:14;;;;;;;10.05;4.78;;;11.20;99.90;;;;;;5067539;28;20076;-73
2022/01/02 11:19:41;;;;;;;13.38;5.07;;;11.30;99.90;;;;;;5067057;28;20056;-74
2022/01/02 11:22:12;;;;;;;12.45;4.95;;;11.30;99.90;;;;;;5068430;28;20135;-72
2022/01/02 11:24:49;;;;;;;10.30;4.88;;;11.30;99.90;;;;;;5067596;28;20123;-72
2022/01/02 11:27:22;;;;;;;13.85;5.50;;;11.40;99.90;;;;;;5069028;28;20099;-73
2022/01/02 11:29:49;;;;;;;8.13;4.35;;;11.30;99.90;;;;;;5066801;28;20121;-72
2022/01/02 11:32:25;;;;;;;9.98;4.80;;;11.30;99.90;;;;;;5068325;28;20076;-71
2022/01/02 11:34:52;;;;;;;13.77;5.07;;;11.30;99.90;;;;;;5067437;28;20484;-71
2022/01/02 11:37:24;;;;;;;11.23;4.55;;;11.30;99.90;;;;;;5064271;28;20068;-71
2022/01/02 11:39:57;;;;;;;9.93;4.38;;;11.30;99.90;;;;;;5065119;28;20493;-72
2022/01/02 11:42:44;;;;;;;11.98;4.80;;;11.30;99.90;;;;;;5069281;28;20052;-72
2022/01/02 11:45:32;;;;;;;14.90;4.25;;;11.20;99.90;;;;;;5067817;28;20056;-72
2022/01/02 11:48:00;;;;;;;11.73;5.03;;;11.20;99.90;;;;;;5069011;28;20056;-71
2022/01/02 11:50:44;;;;;;;11.95;4.35;;;11.20;99.90;;;;;;5063969;28;20044;-71
2022/01/02 11:53:23;;;;;;;11.65;4.60;;;11.20;99.90;;;;;;5064469;28;20568;-71
2022/01/02 11:55:54;;;;;;;10.45;4.40;;;11.20;99.90;;;;;;5067060;28;20050;-71
2022/01/02 11:58:51;;;;;;;15.75;3.97;;;11.10;99.90;;;;;;5075215;28;20550;-71
2022/01/02 12:01:49;;;;;;;9.48;4.13;;;11.10;99.90;;;;;;5065914;28;20118;-71
2022/01/02 12:04:17;;;;;;;10.57;4.43;;;11.20;99.90;;;;;;5069046;28;20049;-71
2022/01/02 12:06:45;;;;;;;9.23;3.90;;;11.20;99.90;;;;;;5075947;28;20052;-72
2022/01/02 12:09:37;;;;;;;11.70;4.22;;;11.20;99.90;;;;;;5079826;28;20094;-70
2022/01/02 12:12:07;;;;;;;14.38;4.25;;;11.20;99.90;;;;;;5076412;28;20102;-71
2022/01/02 12:14:53;;;;;;;12.00;3.85;;;11.20;99.90;;;;;;5079107;28;20052;-71
2022/01/02 12:17:23;;;;;;;13.10;3.72;;;11.10;99.90;;;;;;5065974;28;20559;-71
2022/01/02 12:20:03;;;;;;;15.00;4.20;;;11.20;99.90;;;;;;5066986;28;20041;-71
2022/01/02 12:22:42;;;;;;;8.05;3.83;;;11.20;99.90;;;;;;5066710;28;20102;-71
2022/01/02 12:25:20;;;;;;;17.60;4.13;;;11.20;99.90;;;;;;5067351;28;20083;-71
2022/01/02 12:27:52;;;;;;;11.88;3.60;;;11.20;99.90;;;;;;5076802;28;20088;-70
2022/01/02 12:30:20;;;;;;;13.60;4.00;;;11.50;99.90;;;;;;5068284;28;20081;-71
2022/01/02 12:32:48;;;;;;;12.07;4.35;;;11.20;99.90;;;;;;5066470;28;20080;-71
2022/01/02 12:35:15;;;;;;;16.13;4.13;;;11.20;99.90;;;;;;5067839;28;20052;-71
2022/01/02 12:37:42;;;;;;;11.20;3.35;;;11.20;99.90;;;;;;5064995;28;20492;-71
2022/01/02 12:40:17;;;;;;;10.98;3.20;;;11.20;99.90;;;;;;5067693;28;20125;-71
2022/01/02 12:42:44;;;;;;;16.20;3.55;;;11.20;99.90;;;;;;5064427;28;20083;-71
2022/01/02 12:45:13;;;;;;;10.15;2.90;;;11.20;99.90;;;;;;5066666;28;20131;-72
2022/01/02 12:47:50;;;;;;;12.55;3.35;;;11.20;99.90;;;;;;5068399;28;20086;-71
2022/01/02 12:50:25;;;;;;;12.38;3.85;;;11.20;99.90;;;;;;5067064;28;20048;-71